sensor_id;sensor_type;location;lat;lon;timestamp;temperature;humidity
5881;DHT22;2966;52.598;10.928;2022-12-24T00:02:24;5.20;99.90
5881;DHT22;2966;52.598;10.928;2022-12-24T00:04:51;5.20;99.90
5881;DHT22;2966;52.598;10.928;2022-12-24T00:07:17;5.20;99.90
5881;DHT22;2966;52.598;10.928;2022-12-24T00:09:45;5.20;99.90
5881;DHT22;2966;52.598;10.928;2022-12-24T00:12:12;5.20;99.90
5881;DHT22;2966;52.598;10.928;2022-12-24T00:14:39;5.20;99.90
5881;DHT22;2966;52.598;10.928;2022-12-24T00:17:06;5.20;99.90
5881;DHT22;2966;52.598;10.928;2022-12-24T00:19:33;5.20;99.90
5881;DHT22;2966;52.598;10.928;2022-12-24T00:22:00;5.20;99.90
5881;DHT22;2966;52.598;10.928;2022-12-24T00:24:27;5.10;99.90
5881;DHT22;2966;52.598;10.928;2022-12-24T00:26:55;5.10;99.90
5881;DHT22;2966;52.598;10.928;2022-12-24T00:29:22;5.10;99.90
5881;DHT22;2966;52.598;10.928;2022-12-24T00:31:49;5.10;99.90
5881;DHT22;2966;52.598;10.928;2022-12-24T00:34:15;5.10;99.90
5881;DHT22;2966;52.598;10.928;2022-12-24T00:36:42;5.20;99.90
5881;DHT22;2966;52.598;10.928;2022-12-24T00:39:09;5.20;99.90
5881;DHT22;2966;52.598;10.928;2022-12-24T00:41:36;5.20;99.90
5881;DHT22;2966;52.598;10.928;2022-12-24T00:44:06;5.20;99.90
5881;DHT22;2966;52.598;10.928;2022-12-24T00:46:34;5.20;99.90
5881;DHT22;2966;52.598;10.928;2022-12-24T00:49:04;5.20;99.90
5881;DHT22;2966;52.598;10.928;2022-12-24T00:51:32;5.20;99.90
5881;DHT22;2966;52.598;10.928;2022-12-24T00:53:59;5.20;99.90
5881;DHT22;2966;52.598;10.928;2022-12-24T00:56:26;5.20;99.90
5881;DHT22;2966;52.598;10.928;2022-12-24T00:58:53;5.20;99.90
5881;DHT22;2966;52.598;10.928;2022-12-24T01:01:22;5.20;99.90
5881;DHT22;2966;52.598;10.928;2022-12-24T01:03:49;5.20;99.90
5881;DHT22;2966;52.598;10.928;2022-12-24T01:06:18;5.20;99.90
5881;DHT22;2966;52.598;10.928;2022-12-24T01:08:44;5.20;99.90
5881;DHT22;2966;52.598;10.928;2022-12-24T01:11:12;5.20;99.90
5881;DHT22;2966;52.598;10.928;2022-12-24T01:13:39;5.20;99.90
5881;DHT22;2966;52.598;10.928;2022-12-24T01:16:14;5.20;99.90
5881;DHT22;2966;52.598;10.928;2022-12-24T01:18:42;5.20;99.90
5881;DHT22;2966;52.598;10.928;2022-12-24T01:21:08;5.20;99.90
5881;DHT22;2966;52.598;10.928;2022-12-24T01:23:35;5.20;99.90
5881;DHT22;2966;52.598;10.928;2022-12-24T01:26:03;5.20;99.90
5881;DHT22;2966;52.598;10.928;2022-12-24T01:28:31;5.20;99.90
5881;DHT22;2966;52.598;10.928;2022-12-24T01:30:58;5.20;99.90
5881;DHT22;2966;52.598;10.928;2022-12-24T01:33:27;5.20;99.90
5881;DHT22;2966;52.598;10.928;2022-12-24T01:35:55;5.20;99.90
5881;DHT22;2966;52.598;10.928;2022-12-24T01:38:22;5.20;99.90
5881;DHT22;2966;52.598;10.928;2022-12-24T01:40:48;5.20;99.90
5881;DHT22;2966;52.598;10.928;2022-12-24T01:43:33;5.20;99.90
5881;DHT22;2966;52.598;10.928;2022-12-24T01:46:00;5.20;99.90
5881;DHT22;2966;52.598;10.928;2022-12-24T01:48:36;5.20;99.90
5881;DHT22;2966;52.598;10.928;2022-12-24T01:51:11;5.20;99.90
5881;DHT22;2966;52.598;10.928;2022-12-24T01:53:43;5.20;99.90
5881;DHT22;2966;52.598;10.928;2022-12-24T01:56:13;5.20;99.90
5881;DHT22;2966;52.598;10.928;2022-12-24T01:58:43;5.20;99.90
5881;DHT22;2966;52.598;10.928;2022-12-24T02:01:12;5.20;99.90
5881;DHT22;2966;52.598;10.928;2022-12-24T02:03:38;5.20;99.90
5881;DHT22;2966;52.598;10.928;2022-12-24T02:06:07;5.20;99.90
5881;DHT22;2966;52.598;10.928;2022-12-24T02:08:36;5.20;99.90
5881;DHT22;2966;52.598;10.928;2022-12-24T02:11:10;5.20;99.90
5881;DHT22;2966;52.598;10.928;2022-12-24T02:13:37;5.20;99.90
5881;DHT22;2966;52.598;10.928;2022-12-24T02:16:23;5.20;99.90
5881;DHT22;2966;52.598;10.928;2022-12-24T02:18:58;5.20;99.90
5881;DHT22;2966;52.598;10.928;2022-12-24T02:21:46;5.20;99.90
5881;DHT22;2966;52.598;10.928;2022-12-24T02:24:43;5.20;99.90
5881;DHT22;2966;52.598;10.928;2022-12-24T02:27:20;5.20;99.90
5881;DHT22;2966;52.598;10.928;2022-12-24T02:30:03;5.20;99.90
5881;DHT22;2966;52.598;10.928;2022-12-24T02:32:36;5.20;99.90
5881;DHT22;2966;52.598;10.928;2022-12-24T02:35:12;5.20;99.90
5881;DHT22;2966;52.598;10.928;2022-12-24T02:37:44;5.20;99.90
5881;DHT22;2966;52.598;10.928;2022-12-24T02:40:16;5.20;99.90
5881;DHT22;2966;52.598;10.928;2022-12-24T02:42:48;5.20;99.90
5881;DHT22;2966;52.598;10.928;2022-12-24T02:45:22;5.20;99.90
5881;DHT22;2966;52.598;10.928;2022-12-24T02:47:52;5.20;99.90
5881;DHT22;2966;52.598;10.928;2022-12-24T02:50:21;5.20;99.90
5881;DHT22;2966;52.598;10.928;2022-12-24T02:52:48;5.20;99.90
5881;DHT22;2966;52.598;10.928;2022-12-24T02:55:18;5.20;99.90
5881;DHT22;2966;52.598;10.928;2022-12-24T02:57:56;5.20;99.90
5881;DHT22;2966;52.598;10.928;2022-12-24T03:00:26;5.20;99.90
5881;DHT22;2966;52.598;10.928;2022-12-24T03:03:15;5.20;99.90
5881;DHT22;2966;52.598;10.928;2022-12-24T03:05:47;5.20;99.90
5881;DHT22;2966;52.598;10.928;2022-12-24T03:08:21;5.20;99.90
5881;DHT22;2966;52.598;10.928;2022-12-24T03:10:55;5.20;99.90
5881;DHT22;2966;52.598;10.928;2022-12-24T03:13:24;5.20;99.90
5881;DHT22;2966;52.598;10.928;2022-12-24T03:15:54;5.10;99.90
5881;DHT22;2966;52.598;10.928;2022-12-24T03:18:23;5.20;99.90
5881;DHT22;2966;52.598;10.928;2022-12-24T03:20:55;5.20;99.90
5881;DHT22;2966;52.598;10.928;2022-12-24T03:23:23;5.20;99.90
5881;DHT22;2966;52.598;10.928;2022-12-24T03:25:50;5.20;99.90
5881;DHT22;2966;52.598;10.928;2022-12-24T03:28:18;5.20;99.90
5881;DHT22;2966;52.598;10.928;2022-12-24T03:30:47;5.20;99.90
5881;DHT22;2966;52.598;10.928;2022-12-24T03:33:16;5.20;99.90
5881;DHT22;2966;52.598;10.928;2022-12-24T03:35:43;5.20;99.90
5881;DHT22;2966;52.598;10.928;2022-12-24T03:38:09;5.10;99.90
5881;DHT22;2966;52.598;10.928;2022-12-24T03:40:36;5.10;99.90
5881;DHT22;2966;52.598;10.928;2022-12-24T03:43:03;5.10;99.90
5881;DHT22;2966;52.598;10.928;2022-12-24T03:45:30;5.20;99.90
5881;DHT22;2966;52.598;10.928;2022-12-24T03:47:57;5.20;99.90
5881;DHT22;2966;52.598;10.928;2022-12-24T03:50:25;5.20;99.90
5881;DHT22;2966;52.598;10.928;2022-12-24T03:52:53;5.10;99.90
5881;DHT22;2966;52.598;10.928;2022-12-24T03:55:20;5.20;99.90
5881;DHT22;2966;52.598;10.928;2022-12-24T03:57:46;5.20;99.90
5881;DHT22;2966;52.598;10.928;2022-12-24T04:00:14;5.20;99.90
5881;DHT22;2966;52.598;10.928;2022-12-24T04:02:41;5.20;99.90
5881;DHT22;2966;52.598;10.928;2022-12-24T04:05:12;5.20;99.90
5881;DHT22;2966;52.598;10.928;2022-12-24T04:07:40;5.20;99.90
5881;DHT22;2966;52.598;10.928;2022-12-24T04:10:08;5.20;99.90
5881;DHT22;2966;52.598;10.928;2022-12-24T04:12:35;5.20;99.90
5881;DHT22;2966;52.598;10.928;2022-12-24T04:15:02;5.20;99.90
5881;DHT22;2966;52.598;10.928;2022-12-24T04:17:29;5.20;99.90
5881;DHT22;2966;52.598;10.928;2022-12-24T04:19:56;5.20;99.90
5881;DHT22;2966;52.598;10.928;2022-12-24T04:22:23;5.20;99.90
5881;DHT22;2966;52.598;10.928;2022-12-24T04:24:51;5.20;99.90
5881;DHT22;2966;52.598;10.928;2022-12-24T04:27:18;5.20;99.90
5881;DHT22;2966;52.598;10.928;2022-12-24T04:29:45;5.20;99.90
5881;DHT22;2966;52.598;10.928;2022-12-24T04:32:11;5.20;99.90
5881;DHT22;2966;52.598;10.928;2022-12-24T04:34:38;5.30;99.90
5881;DHT22;2966;52.598;10.928;2022-12-24T04:37:05;5.20;99.90
5881;DHT22;2966;52.598;10.928;2022-12-24T04:39:32;5.20;99.90
5881;DHT22;2966;52.598;10.928;2022-12-24T04:42:00;5.20;99.90
5881;DHT22;2966;52.598;10.928;2022-12-24T04:44:27;5.20;99.90
5881;DHT22;2966;52.598;10.928;2022-12-24T04:46:53;5.30;99.90
5881;DHT22;2966;52.598;10.928;2022-12-24T04:49:20;5.20;99.90
5881;DHT22;2966;52.598;10.928;2022-12-24T04:51:47;5.20;99.90
5881;DHT22;2966;52.598;10.928;2022-12-24T04:54:14;5.20;99.90
5881;DHT22;2966;52.598;10.928;2022-12-24T04:56:41;5.20;99.90
5881;DHT22;2966;52.598;10.928;2022-12-24T04:59:09;5.20;99.90
5881;DHT22;2966;52.598;10.928;2022-12-24T05:01:36;5.10;99.90
5881;DHT22;2966;52.598;10.928;2022-12-24T05:04:02;5.20;99.90
5881;DHT22;2966;52.598;10.928;2022-12-24T05:06:31;5.20;99.90
5881;DHT22;2966;52.598;10.928;2022-12-24T05:08:59;5.20;99.90
5881;DHT22;2966;52.598;10.928;2022-12-24T05:11:26;5.20;99.90
5881;DHT22;2966;52.598;10.928;2022-12-24T05:13:53;5.20;99.90
5881;DHT22;2966;52.598;10.928;2022-12-24T05:16:22;5.20;99.90
5881;DHT22;2966;52.598;10.928;2022-12-24T05:18:49;5.20;99.90
5881;DHT22;2966;52.598;10.928;2022-12-24T05:21:18;5.20;99.90
5881;DHT22;2966;52.598;10.928;2022-12-24T05:23:45;5.20;99.90
5881;DHT22;2966;52.598;10.928;2022-12-24T05:26:32;5.20;99.90
5881;DHT22;2966;52.598;10.928;2022-12-24T05:29:00;5.20;99.90
5881;DHT22;2966;52.598;10.928;2022-12-24T05:31:30;5.30;99.90
5881;DHT22;2966;52.598;10.928;2022-12-24T05:33:58;5.20;99.90
5881;DHT22;2966;52.598;10.928;2022-12-24T05:36:25;5.20;99.90
5881;DHT22;2966;52.598;10.928;2022-12-24T05:38:51;5.20;99.90
5881;DHT22;2966;52.598;10.928;2022-12-24T05:41:18;5.20;99.90
5881;DHT22;2966;52.598;10.928;2022-12-24T05:43:45;5.20;99.90
5881;DHT22;2966;52.598;10.928;2022-12-24T05:46:14;5.20;99.90
5881;DHT22;2966;52.598;10.928;2022-12-24T05:48:46;5.20;99.90
5881;DHT22;2966;52.598;10.928;2022-12-24T05:51:13;5.20;99.90
5881;DHT22;2966;52.598;10.928;2022-12-24T05:53:43;5.20;99.90
5881;DHT22;2966;52.598;10.928;2022-12-24T05:56:11;5.20;99.90
5881;DHT22;2966;52.598;10.928;2022-12-24T05:58:39;5.20;99.90
5881;DHT22;2966;52.598;10.928;2022-12-24T06:01:07;5.30;99.90
5881;DHT22;2966;52.598;10.928;2022-12-24T06:03:35;5.30;99.90
5881;DHT22;2966;52.598;10.928;2022-12-24T06:06:05;5.40;99.90
5881;DHT22;2966;52.598;10.928;2022-12-24T06:08:33;5.50;99.90
5881;DHT22;2966;52.598;10.928;2022-12-24T06:11:02;5.50;99.90
5881;DHT22;2966;52.598;10.928;2022-12-24T06:13:30;5.60;99.90
5881;DHT22;2966;52.598;10.928;2022-12-24T06:15:57;5.70;99.90
5881;DHT22;2966;52.598;10.928;2022-12-24T06:18:24;5.80;99.90
5881;DHT22;2966;52.598;10.928;2022-12-24T06:20:51;5.90;99.90
5881;DHT22;2966;52.598;10.928;2022-12-24T06:23:20;6.00;99.90
5881;DHT22;2966;52.598;10.928;2022-12-24T06:25:47;6.10;99.90
5881;DHT22;2966;52.598;10.928;2022-12-24T06:28:14;6.30;99.90
5881;DHT22;2966;52.598;10.928;2022-12-24T06:30:44;6.30;99.90
5881;DHT22;2966;52.598;10.928;2022-12-24T06:33:11;6.40;99.90
5881;DHT22;2966;52.598;10.928;2022-12-24T06:35:38;6.40;99.90
5881;DHT22;2966;52.598;10.928;2022-12-24T06:38:04;6.50;99.90
5881;DHT22;2966;52.598;10.928;2022-12-24T06:40:33;6.50;99.90
5881;DHT22;2966;52.598;10.928;2022-12-24T06:43:00;6.60;99.90
5881;DHT22;2966;52.598;10.928;2022-12-24T06:45:26;6.70;99.90
5881;DHT22;2966;52.598;10.928;2022-12-24T06:47:53;6.70;99.90
5881;DHT22;2966;52.598;10.928;2022-12-24T06:50:20;6.70;99.90
5881;DHT22;2966;52.598;10.928;2022-12-24T06:52:46;6.70;99.90
5881;DHT22;2966;52.598;10.928;2022-12-24T06:55:13;6.70;99.90
5881;DHT22;2966;52.598;10.928;2022-12-24T06:57:41;6.70;99.90
5881;DHT22;2966;52.598;10.928;2022-12-24T07:00:10;6.80;99.90
5881;DHT22;2966;52.598;10.928;2022-12-24T07:02:38;6.80;99.90
5881;DHT22;2966;52.598;10.928;2022-12-24T07:05:06;6.80;99.90
5881;DHT22;2966;52.598;10.928;2022-12-24T07:07:34;6.90;99.90
5881;DHT22;2966;52.598;10.928;2022-12-24T07:10:01;7.00;99.90
5881;DHT22;2966;52.598;10.928;2022-12-24T07:12:28;6.90;99.90
5881;DHT22;2966;52.598;10.928;2022-12-24T07:14:56;6.90;99.90
5881;DHT22;2966;52.598;10.928;2022-12-24T07:17:22;6.90;99.90
5881;DHT22;2966;52.598;10.928;2022-12-24T07:19:49;7.00;99.90
5881;DHT22;2966;52.598;10.928;2022-12-24T07:22:16;6.90;99.90
5881;DHT22;2966;52.598;10.928;2022-12-24T07:24:43;6.90;99.90
5881;DHT22;2966;52.598;10.928;2022-12-24T07:27:09;6.90;99.90
5881;DHT22;2966;52.598;10.928;2022-12-24T07:29:36;7.00;99.90
5881;DHT22;2966;52.598;10.928;2022-12-24T07:32:05;7.00;99.90
5881;DHT22;2966;52.598;10.928;2022-12-24T07:34:31;7.10;99.90
5881;DHT22;2966;52.598;10.928;2022-12-24T07:36:58;7.10;99.90
5881;DHT22;2966;52.598;10.928;2022-12-24T07:39:25;7.10;99.90
5881;DHT22;2966;52.598;10.928;2022-12-24T07:41:51;7.20;99.90
5881;DHT22;2966;52.598;10.928;2022-12-24T07:44:18;7.30;99.90
5881;DHT22;2966;52.598;10.928;2022-12-24T07:46:45;7.30;99.90
5881;DHT22;2966;52.598;10.928;2022-12-24T07:49:13;7.50;99.90
5881;DHT22;2966;52.598;10.928;2022-12-24T07:51:40;7.50;99.90
5881;DHT22;2966;52.598;10.928;2022-12-24T07:54:06;7.60;99.90
5881;DHT22;2966;52.598;10.928;2022-12-24T07:56:34;7.60;99.90
5881;DHT22;2966;52.598;10.928;2022-12-24T07:59:00;7.60;99.90
5881;DHT22;2966;52.598;10.928;2022-12-24T08:01:27;7.70;99.90
5881;DHT22;2966;52.598;10.928;2022-12-24T08:03:54;7.80;99.90
5881;DHT22;2966;52.598;10.928;2022-12-24T08:06:22;7.80;99.90
5881;DHT22;2966;52.598;10.928;2022-12-24T08:08:49;7.90;99.90
5881;DHT22;2966;52.598;10.928;2022-12-24T08:11:16;8.00;99.90
5881;DHT22;2966;52.598;10.928;2022-12-24T08:13:42;8.00;99.90
5881;DHT22;2966;52.598;10.928;2022-12-24T08:16:09;8.00;99.90
5881;DHT22;2966;52.598;10.928;2022-12-24T08:18:36;8.10;99.90
5881;DHT22;2966;52.598;10.928;2022-12-24T08:21:05;8.10;99.90
5881;DHT22;2966;52.598;10.928;2022-12-24T08:23:34;8.10;99.90
5881;DHT22;2966;52.598;10.928;2022-12-24T08:26:01;8.10;99.90
5881;DHT22;2966;52.598;10.928;2022-12-24T08:28:28;8.10;99.90
5881;DHT22;2966;52.598;10.928;2022-12-24T08:30:55;8.10;99.90
5881;DHT22;2966;52.598;10.928;2022-12-24T08:33:21;8.20;99.90
5881;DHT22;2966;52.598;10.928;2022-12-24T08:35:49;8.30;99.90
5881;DHT22;2966;52.598;10.928;2022-12-24T08:38:16;8.20;99.90
5881;DHT22;2966;52.598;10.928;2022-12-24T08:40:44;8.30;99.90
5881;DHT22;2966;52.598;10.928;2022-12-24T08:43:16;8.30;99.90
5881;DHT22;2966;52.598;10.928;2022-12-24T08:45:43;8.30;99.90
5881;DHT22;2966;52.598;10.928;2022-12-24T08:48:12;8.30;99.90
5881;DHT22;2966;52.598;10.928;2022-12-24T08:50:40;8.30;99.90
5881;DHT22;2966;52.598;10.928;2022-12-24T08:53:07;8.30;99.90
5881;DHT22;2966;52.598;10.928;2022-12-24T08:55:34;8.30;99.90
5881;DHT22;2966;52.598;10.928;2022-12-24T08:58:03;8.30;99.90
5881;DHT22;2966;52.598;10.928;2022-12-24T09:00:30;8.30;99.90
5881;DHT22;2966;52.598;10.928;2022-12-24T09:02:57;8.30;99.90
5881;DHT22;2966;52.598;10.928;2022-12-24T09:05:23;8.30;99.90
5881;DHT22;2966;52.598;10.928;2022-12-24T09:07:51;8.30;99.90
5881;DHT22;2966;52.598;10.928;2022-12-24T09:10:18;8.30;99.90
5881;DHT22;2966;52.598;10.928;2022-12-24T09:12:44;8.30;99.90
5881;DHT22;2966;52.598;10.928;2022-12-24T09:15:12;8.30;99.90
5881;DHT22;2966;52.598;10.928;2022-12-24T09:17:39;8.30;99.90
5881;DHT22;2966;52.598;10.928;2022-12-24T09:20:07;8.30;99.90
5881;DHT22;2966;52.598;10.928;2022-12-24T09:22:35;8.40;99.90
5881;DHT22;2966;52.598;10.928;2022-12-24T09:25:03;8.40;99.90
5881;DHT22;2966;52.598;10.928;2022-12-24T09:27:30;8.40;99.90
5881;DHT22;2966;52.598;10.928;2022-12-24T09:29:57;8.40;99.90
5881;DHT22;2966;52.598;10.928;2022-12-24T09:32:25;8.50;99.90
5881;DHT22;2966;52.598;10.928;2022-12-24T09:34:52;8.50;99.90
5881;DHT22;2966;52.598;10.928;2022-12-24T09:37:19;8.50;99.90
5881;DHT22;2966;52.598;10.928;2022-12-24T09:39:46;8.50;99.90
5881;DHT22;2966;52.598;10.928;2022-12-24T09:42:28;8.50;99.90
5881;DHT22;2966;52.598;10.928;2022-12-24T09:45:02;8.50;99.90
5881;DHT22;2966;52.598;10.928;2022-12-24T09:47:35;8.50;99.90
5881;DHT22;2966;52.598;10.928;2022-12-24T09:50:23;8.40;99.90
5881;DHT22;2966;52.598;10.928;2022-12-24T09:52:52;8.50;99.90
5881;DHT22;2966;52.598;10.928;2022-12-24T09:55:24;8.50;99.90
5881;DHT22;2966;52.598;10.928;2022-12-24T09:57:53;8.50;99.90
5881;DHT22;2966;52.598;10.928;2022-12-24T10:00:23;8.60;99.90
5881;DHT22;2966;52.598;10.928;2022-12-24T10:02:52;8.60;99.90
5881;DHT22;2966;52.598;10.928;2022-12-24T10:05:47;8.60;99.90
5881;DHT22;2966;52.598;10.928;2022-12-24T10:08:24;8.60;99.90
5881;DHT22;2966;52.598;10.928;2022-12-24T10:10:54;8.60;99.90
5881;DHT22;2966;52.598;10.928;2022-12-24T10:13:31;8.60;99.90
5881;DHT22;2966;52.598;10.928;2022-12-24T10:16:05;8.70;99.90
5881;DHT22;2966;52.598;10.928;2022-12-24T10:18:53;8.80;99.90
5881;DHT22;2966;52.598;10.928;2022-12-24T10:21:27;8.80;99.90
5881;DHT22;2966;52.598;10.928;2022-12-24T10:24:02;8.80;99.90
5881;DHT22;2966;52.598;10.928;2022-12-24T10:26:36;8.70;99.90
5881;DHT22;2966;52.598;10.928;2022-12-24T10:29:10;8.70;99.90
5881;DHT22;2966;52.598;10.928;2022-12-24T10:31:41;8.70;99.90
5881;DHT22;2966;52.598;10.928;2022-12-24T10:34:14;8.70;99.90
5881;DHT22;2966;52.598;10.928;2022-12-24T10:36:43;8.80;99.90
5881;DHT22;2966;52.598;10.928;2022-12-24T10:39:12;8.70;99.90
5881;DHT22;2966;52.598;10.928;2022-12-24T10:41:42;8.80;99.90
5881;DHT22;2966;52.598;10.928;2022-12-24T10:44:15;8.80;99.90
5881;DHT22;2966;52.598;10.928;2022-12-24T10:46:43;8.80;99.90
5881;DHT22;2966;52.598;10.928;2022-12-24T10:49:14;8.80;99.90
5881;DHT22;2966;52.598;10.928;2022-12-24T10:51:45;8.80;99.90
5881;DHT22;2966;52.598;10.928;2022-12-24T10:54:16;8.90;99.90
5881;DHT22;2966;52.598;10.928;2022-12-24T10:56:45;8.90;99.90
5881;DHT22;2966;52.598;10.928;2022-12-24T10:59:24;9.00;99.90
5881;DHT22;2966;52.598;10.928;2022-12-24T11:01:52;9.00;99.90
5881;DHT22;2966;52.598;10.928;2022-12-24T11:04:22;9.00;99.90
5881;DHT22;2966;52.598;10.928;2022-12-24T11:07:00;9.00;99.90
5881;DHT22;2966;52.598;10.928;2022-12-24T11:09:29;9.00;99.90
5881;DHT22;2966;52.598;10.928;2022-12-24T11:11:58;9.00;99.90
5881;DHT22;2966;52.598;10.928;2022-12-24T11:14:29;9.00;99.90
5881;DHT22;2966;52.598;10.928;2022-12-24T11:16:59;9.00;99.90
5881;DHT22;2966;52.598;10.928;2022-12-24T11:19:30;9.00;99.90
5881;DHT22;2966;52.598;10.928;2022-12-24T11:22:01;9.00;99.90
5881;DHT22;2966;52.598;10.928;2022-12-24T11:24:31;9.00;99.90
5881;DHT22;2966;52.598;10.928;2022-12-24T11:27:21;8.90;99.90
5881;DHT22;2966;52.598;10.928;2022-12-24T11:29:48;8.90;99.90
5881;DHT22;2966;52.598;10.928;2022-12-24T11:32:17;8.90;99.90
5881;DHT22;2966;52.598;10.928;2022-12-24T11:34:45;8.80;99.90
5881;DHT22;2966;52.598;10.928;2022-12-24T11:37:15;8.70;99.90
5881;DHT22;2966;52.598;10.928;2022-12-24T11:39:46;8.70;99.90
5881;DHT22;2966;52.598;10.928;2022-12-24T11:42:25;8.60;99.90
5881;DHT22;2966;52.598;10.928;2022-12-24T11:44:55;8.50;99.90
5881;DHT22;2966;52.598;10.928;2022-12-24T11:47:31;8.50;99.90
5881;DHT22;2966;52.598;10.928;2022-12-24T11:50:22;8.50;99.90
5881;DHT22;2966;52.598;10.928;2022-12-24T11:52:51;8.40;99.90
5881;DHT22;2966;52.598;10.928;2022-12-24T11:55:23;8.40;99.90
5881;DHT22;2966;52.598;10.928;2022-12-24T11:57:57;8.40;99.90
5881;DHT22;2966;52.598;10.928;2022-12-24T12:00:27;8.40;99.90
5881;DHT22;2966;52.598;10.928;2022-12-24T12:02:56;8.50;99.90
5881;DHT22;2966;52.598;10.928;2022-12-24T12:05:27;8.40;99.90
5881;DHT22;2966;52.598;10.928;2022-12-24T12:08:06;8.50;99.90
5881;DHT22;2966;52.598;10.928;2022-12-24T12:10:36;8.40;99.90
5881;DHT22;2966;52.598;10.928;2022-12-24T12:13:09;8.40;99.90
5881;DHT22;2966;52.598;10.928;2022-12-24T12:15:40;8.40;99.90
5881;DHT22;2966;52.598;10.928;2022-12-24T12:18:10;8.40;99.90
5881;DHT22;2966;52.598;10.928;2022-12-24T12:20:42;8.30;99.90
5881;DHT22;2966;52.598;10.928;2022-12-24T12:23:14;8.20;99.90
5881;DHT22;2966;52.598;10.928;2022-12-24T12:25:45;8.10;99.90
5881;DHT22;2966;52.598;10.928;2022-12-24T12:28:19;8.10;99.90
5881;DHT22;2966;52.598;10.928;2022-12-24T12:30:54;8.10;99.90
5881;DHT22;2966;52.598;10.928;2022-12-24T12:33:30;8.00;99.90
5881;DHT22;2966;52.598;10.928;2022-12-24T12:36:01;8.00;99.90
5881;DHT22;2966;52.598;10.928;2022-12-24T12:38:29;8.00;99.90
5881;DHT22;2966;52.598;10.928;2022-12-24T12:41:03;7.90;99.90
5881;DHT22;2966;52.598;10.928;2022-12-24T12:43:55;7.90;99.90
5881;DHT22;2966;52.598;10.928;2022-12-24T12:46:32;7.90;99.90
5881;DHT22;2966;52.598;10.928;2022-12-24T12:49:16;7.90;99.90
5881;DHT22;2966;52.598;10.928;2022-12-24T12:51:50;7.90;99.90
5881;DHT22;2966;52.598;10.928;2022-12-24T12:54:31;7.90;99.90
5881;DHT22;2966;52.598;10.928;2022-12-24T12:57:03;8.00;99.90
5881;DHT22;2966;52.598;10.928;2022-12-24T12:59:36;8.10;99.90
5881;DHT22;2966;52.598;10.928;2022-12-24T13:02:20;8.20;99.90
5881;DHT22;2966;52.598;10.928;2022-12-24T13:05:12;8.20;99.90
5881;DHT22;2966;52.598;10.928;2022-12-24T13:07:54;8.30;99.90
5881;DHT22;2966;52.598;10.928;2022-12-24T13:10:53;8.40;99.90
5881;DHT22;2966;52.598;10.928;2022-12-24T13:13:45;8.40;99.90
5881;DHT22;2966;52.598;10.928;2022-12-24T13:16:47;8.40;99.90
5881;DHT22;2966;52.598;10.928;2022-12-24T13:19:28;8.50;99.90
5881;DHT22;2966;52.598;10.928;2022-12-24T13:22:00;8.50;99.90
5881;DHT22;2966;52.598;10.928;2022-12-24T13:24:30;8.50;99.90
5881;DHT22;2966;52.598;10.928;2022-12-24T13:27:02;8.50;99.90
5881;DHT22;2966;52.598;10.928;2022-12-24T13:29:39;8.50;99.90
5881;DHT22;2966;52.598;10.928;2022-12-24T13:32:39;8.50;99.90
5881;DHT22;2966;52.598;10.928;2022-12-24T13:35:32;8.50;99.90
5881;DHT22;2966;52.598;10.928;2022-12-24T13:38:29;8.50;99.90
5881;DHT22;2966;52.598;10.928;2022-12-24T13:41:37;8.50;99.90
5881;DHT22;2966;52.598;10.928;2022-12-24T13:44:20;8.50;99.90
5881;DHT22;2966;52.598;10.928;2022-12-24T13:46:53;8.40;99.90
5881;DHT22;2966;52.598;10.928;2022-12-24T13:49:27;8.30;99.90
5881;DHT22;2966;52.598;10.928;2022-12-24T13:52:15;8.30;99.90
5881;DHT22;2966;52.598;10.928;2022-12-24T13:54:46;8.20;99.90
5881;DHT22;2966;52.598;10.928;2022-12-24T13:57:32;8.30;99.90
5881;DHT22;2966;52.598;10.928;2022-12-24T14:00:03;8.40;99.90
5881;DHT22;2966;52.598;10.928;2022-12-24T14:02:36;8.40;99.90
5881;DHT22;2966;52.598;10.928;2022-12-24T14:05:14;8.50;99.90
5881;DHT22;2966;52.598;10.928;2022-12-24T14:07:45;8.40;99.90
5881;DHT22;2966;52.598;10.928;2022-12-24T14:10:19;8.30;99.90
5881;DHT22;2966;52.598;10.928;2022-12-24T14:12:49;8.20;99.90
5881;DHT22;2966;52.598;10.928;2022-12-24T14:18:31;8.00;99.90
5881;DHT22;2966;52.598;10.928;2022-12-24T14:20:59;7.90;99.90
5881;DHT22;2966;52.598;10.928;2022-12-24T14:23:34;8.00;99.90
5881;DHT22;2966;52.598;10.928;2022-12-24T14:26:10;7.90;99.90
5881;DHT22;2966;52.598;10.928;2022-12-24T14:28:42;8.00;99.90
5881;DHT22;2966;52.598;10.928;2022-12-24T14:31:14;8.00;99.90
5881;DHT22;2966;52.598;10.928;2022-12-24T14:33:41;8.00;99.90
5881;DHT22;2966;52.598;10.928;2022-12-24T14:36:08;8.00;99.90
5881;DHT22;2966;52.598;10.928;2022-12-24T14:38:39;8.00;99.90
5881;DHT22;2966;52.598;10.928;2022-12-24T14:41:18;8.00;99.90
5881;DHT22;2966;52.598;10.928;2022-12-24T14:43:55;8.00;99.90
5881;DHT22;2966;52.598;10.928;2022-12-24T14:46:27;8.00;99.90
5881;DHT22;2966;52.598;10.928;2022-12-24T14:49:03;8.00;99.90
5881;DHT22;2966;52.598;10.928;2022-12-24T14:51:34;8.00;99.90
5881;DHT22;2966;52.598;10.928;2022-12-24T14:54:28;8.00;99.90
5881;DHT22;2966;52.598;10.928;2022-12-24T14:57:23;8.10;99.90
5881;DHT22;2966;52.598;10.928;2022-12-24T14:59:54;8.00;99.90
5881;DHT22;2966;52.598;10.928;2022-12-24T15:02:41;8.10;99.90
5881;DHT22;2966;52.598;10.928;2022-12-24T15:05:12;8.10;99.90
5881;DHT22;2966;52.598;10.928;2022-12-24T15:07:44;8.10;99.90
5881;DHT22;2966;52.598;10.928;2022-12-24T15:10:26;8.10;99.90
5881;DHT22;2966;52.598;10.928;2022-12-24T15:12:55;8.10;99.90
5881;DHT22;2966;52.598;10.928;2022-12-24T15:15:23;8.10;99.90
5881;DHT22;2966;52.598;10.928;2022-12-24T15:17:50;8.10;99.90
5881;DHT22;2966;52.598;10.928;2022-12-24T15:20:20;8.00;99.90
5881;DHT22;2966;52.598;10.928;2022-12-24T15:22:51;8.10;99.90
5881;DHT22;2966;52.598;10.928;2022-12-24T15:25:21;8.10;99.90
5881;DHT22;2966;52.598;10.928;2022-12-24T15:27:48;8.00;99.90
5881;DHT22;2966;52.598;10.928;2022-12-24T15:30:18;8.00;99.90
5881;DHT22;2966;52.598;10.928;2022-12-24T15:32:49;8.00;99.90
5881;DHT22;2966;52.598;10.928;2022-12-24T15:35:34;8.00;99.90
5881;DHT22;2966;52.598;10.928;2022-12-24T15:38:05;7.90;99.90
5881;DHT22;2966;52.598;10.928;2022-12-24T15:40:36;7.90;99.90
5881;DHT22;2966;52.598;10.928;2022-12-24T15:43:05;8.00;99.90
5881;DHT22;2966;52.598;10.928;2022-12-24T15:45:37;8.00;99.90
5881;DHT22;2966;52.598;10.928;2022-12-24T15:48:10;7.90;99.90
5881;DHT22;2966;52.598;10.928;2022-12-24T15:50:42;8.00;99.90
5881;DHT22;2966;52.598;10.928;2022-12-24T15:53:13;8.10;99.90
5881;DHT22;2966;52.598;10.928;2022-12-24T15:55:45;8.10;99.90
5881;DHT22;2966;52.598;10.928;2022-12-24T15:58:15;8.20;99.90
5881;DHT22;2966;52.598;10.928;2022-12-24T16:00:43;8.10;99.90
5881;DHT22;2966;52.598;10.928;2022-12-24T16:03:26;8.20;99.90
5881;DHT22;2966;52.598;10.928;2022-12-24T16:05:58;8.20;99.90
5881;DHT22;2966;52.598;10.928;2022-12-24T16:08:29;8.20;99.90
5881;DHT22;2966;52.598;10.928;2022-12-24T16:11:14;8.10;99.90
5881;DHT22;2966;52.598;10.928;2022-12-24T16:13:57;8.10;99.90
5881;DHT22;2966;52.598;10.928;2022-12-24T16:16:33;8.00;99.90
5881;DHT22;2966;52.598;10.928;2022-12-24T16:19:02;8.00;99.90
5881;DHT22;2966;52.598;10.928;2022-12-24T16:21:31;8.00;99.90
5881;DHT22;2966;52.598;10.928;2022-12-24T16:24:09;8.00;99.90
5881;DHT22;2966;52.598;10.928;2022-12-24T16:26:39;8.00;99.90
5881;DHT22;2966;52.598;10.928;2022-12-24T16:29:06;8.00;99.90
5881;DHT22;2966;52.598;10.928;2022-12-24T16:31:37;8.00;99.90